sensor_id;sensor_type;location;lat;lon;timestamp;P1;durP1;ratioP1;P2;durP2;ratioP2
13584;SDS011;6863;48.402;9.994;2023-02-28T00:01:20;5.23;;;4.00;;
13584;SDS011;6863;48.402;9.994;2023-02-28T00:03:46;3.90;;;3.50;;
13584;SDS011;6863;48.402;9.994;2023-02-28T00:06:11;4.60;;;4.20;;
13584;SDS011;6863;48.402;9.994;2023-02-28T00:08:37;4.60;;;4.13;;
13584;SDS011;6863;48.402;9.994;2023-02-28T00:11:03;5.33;;;3.83;;
13584;SDS011;6863;48.402;9.994;2023-02-28T00:13:31;4.33;;;3.93;;
13584;SDS011;6863;48.402;9.994;2023-02-28T00:16:10;4.40;;;4.00;;
13584;SDS011;6863;48.402;9.994;2023-02-28T00:18:38;4.43;;;4.03;;
13584;SDS011;6863;48.402;9.994;2023-02-28T00:21:04;4.10;;;3.70;;
13584;SDS011;6863;48.402;9.994;2023-02-28T00:23:31;4.37;;;3.97;;
13584;SDS011;6863;48.402;9.994;2023-02-28T00:25:56;4.03;;;3.63;;
13584;SDS011;6863;48.402;9.994;2023-02-28T00:28:22;3.93;;;3.63;;
13584;SDS011;6863;48.402;9.994;2023-02-28T00:30:48;3.37;;;3.07;;
13584;SDS011;6863;48.402;9.994;2023-02-28T00:33:15;3.60;;;3.30;;
13584;SDS011;6863;48.402;9.994;2023-02-28T00:35:40;3.80;;;3.50;;
13584;SDS011;6863;48.402;9.994;2023-02-28T00:38:06;3.77;;;3.47;;
13584;SDS011;6863;48.402;9.994;2023-02-28T00:40:32;3.37;;;3.17;;
13584;SDS011;6863;48.402;9.994;2023-02-28T00:42:58;4.00;;;3.60;;
13584;SDS011;6863;48.402;9.994;2023-02-28T00:45:23;5.40;;;3.80;;
13584;SDS011;6863;48.402;9.994;2023-02-28T00:47:49;5.47;;;3.40;;
13584;SDS011;6863;48.402;9.994;2023-02-28T00:50:19;4.47;;;4.07;;
13584;SDS011;6863;48.402;9.994;2023-02-28T00:52:45;4.63;;;3.70;;
13584;SDS011;6863;48.402;9.994;2023-02-28T00:55:11;4.13;;;3.77;;
13584;SDS011;6863;48.402;9.994;2023-02-28T00:57:37;4.80;;;3.60;;
13584;SDS011;6863;48.402;9.994;2023-02-28T01:00:03;4.60;;;3.70;;
13584;SDS011;6863;48.402;9.994;2023-02-28T01:02:29;4.27;;;3.87;;
13584;SDS011;6863;48.402;9.994;2023-02-28T01:04:55;5.27;;;3.50;;
13584;SDS011;6863;48.402;9.994;2023-02-28T01:07:21;4.70;;;3.77;;
13584;SDS011;6863;48.402;9.994;2023-02-28T01:09:47;3.83;;;3.53;;
13584;SDS011;6863;48.402;9.994;2023-02-28T01:12:13;3.93;;;3.63;;
13584;SDS011;6863;48.402;9.994;2023-02-28T01:14:39;4.50;;;4.07;;
13584;SDS011;6863;48.402;9.994;2023-02-28T01:17:04;4.07;;;3.67;;
13584;SDS011;6863;48.402;9.994;2023-02-28T01:19:30;3.87;;;3.50;;
13584;SDS011;6863;48.402;9.994;2023-02-28T01:21:56;4.57;;;3.70;;
13584;SDS011;6863;48.402;9.994;2023-02-28T01:24:22;4.23;;;3.77;;
13584;SDS011;6863;48.402;9.994;2023-02-28T01:26:47;4.27;;;3.87;;
13584;SDS011;6863;48.402;9.994;2023-02-28T01:29:13;3.83;;;3.53;;
13584;SDS011;6863;48.402;9.994;2023-02-28T01:31:39;4.10;;;3.80;;
13584;SDS011;6863;48.402;9.994;2023-02-28T01:34:05;4.17;;;3.80;;
13584;SDS011;6863;48.402;9.994;2023-02-28T01:36:30;5.10;;;4.60;;
13584;SDS011;6863;48.402;9.994;2023-02-28T01:38:56;4.57;;;4.17;;
13584;SDS011;6863;48.402;9.994;2023-02-28T01:41:26;4.60;;;4.20;;
13584;SDS011;6863;48.402;9.994;2023-02-28T01:43:56;4.03;;;3.63;;
13584;SDS011;6863;48.402;9.994;2023-02-28T01:46:21;4.63;;;4.23;;
13584;SDS011;6863;48.402;9.994;2023-02-28T01:48:59;6.73;;;4.63;;
13584;SDS011;6863;48.402;9.994;2023-02-28T01:51:30;4.00;;;3.60;;
13584;SDS011;6863;48.402;9.994;2023-02-28T01:54:06;4.53;;;3.73;;
13584;SDS011;6863;48.402;9.994;2023-02-28T01:56:38;4.80;;;4.13;;
13584;SDS011;6863;48.402;9.994;2023-02-28T01:59:08;7.13;;;4.13;;
13584;SDS011;6863;48.402;9.994;2023-02-28T02:01:35;4.37;;;4.00;;
13584;SDS011;6863;48.402;9.994;2023-02-28T02:04:01;4.40;;;4.10;;
13584;SDS011;6863;48.402;9.994;2023-02-28T02:06:29;4.73;;;4.33;;
13584;SDS011;6863;48.402;9.994;2023-02-28T02:08:59;4.93;;;4.40;;
13584;SDS011;6863;48.402;9.994;2023-02-28T02:11:25;6.27;;;4.70;;
13584;SDS011;6863;48.402;9.994;2023-02-28T02:16:58;3.93;;;3.63;;
13584;SDS011;6863;48.402;9.994;2023-02-28T02:28:14;4.77;;;4.37;;
13584;SDS011;6863;48.402;9.994;2023-02-28T02:31:27;4.43;;;4.03;;
13584;SDS011;6863;48.402;9.994;2023-02-28T02:47:44;5.47;;;4.50;;
13584;SDS011;6863;48.402;9.994;2023-02-28T02:50:16;4.27;;;3.97;;
13584;SDS011;6863;48.402;9.994;2023-02-28T02:52:49;5.80;;;4.43;;
13584;SDS011;6863;48.402;9.994;2023-02-28T02:55:19;5.20;;;4.67;;
13584;SDS011;6863;48.402;9.994;2023-02-28T02:57:48;4.50;;;4.10;;
13584;SDS011;6863;48.402;9.994;2023-02-28T03:00:29;4.50;;;4.10;;
13584;SDS011;6863;48.402;9.994;2023-02-28T03:03:01;5.70;;;5.00;;
13584;SDS011;6863;48.402;9.994;2023-02-28T03:05:33;4.83;;;4.33;;
13584;SDS011;6863;48.402;9.994;2023-02-28T03:08:06;5.80;;;4.37;;
13584;SDS011;6863;48.402;9.994;2023-02-28T03:10:34;5.97;;;4.40;;
13584;SDS011;6863;48.402;9.994;2023-02-28T03:23:45;4.73;;;4.33;;
13584;SDS011;6863;48.402;9.994;2023-02-28T03:26:25;4.53;;;3.90;;
13584;SDS011;6863;48.402;9.994;2023-02-28T03:28:55;5.37;;;4.73;;
13584;SDS011;6863;48.402;9.994;2023-02-28T03:34:30;6.13;;;4.30;;
13584;SDS011;6863;48.402;9.994;2023-02-28T03:37:02;5.30;;;4.57;;
13584;SDS011;6863;48.402;9.994;2023-02-28T03:39:39;5.10;;;4.60;;
13584;SDS011;6863;48.402;9.994;2023-02-28T03:42:11;4.97;;;4.40;;
13584;SDS011;6863;48.402;9.994;2023-02-28T03:44:43;5.80;;;4.50;;
13584;SDS011;6863;48.402;9.994;2023-02-28T03:47:19;5.60;;;5.00;;
13584;SDS011;6863;48.402;9.994;2023-02-28T03:49:50;5.23;;;4.73;;
13584;SDS011;6863;48.402;9.994;2023-02-28T03:52:31;5.20;;;4.47;;
13584;SDS011;6863;48.402;9.994;2023-02-28T03:55:02;5.30;;;4.80;;
13584;SDS011;6863;48.402;9.994;2023-02-28T03:57:34;5.43;;;4.93;;
13584;SDS011;6863;48.402;9.994;2023-02-28T04:00:06;7.40;;;5.40;;
13584;SDS011;6863;48.402;9.994;2023-02-28T04:02:43;5.07;;;4.67;;
13584;SDS011;6863;48.402;9.994;2023-02-28T04:05:09;5.83;;;5.23;;
13584;SDS011;6863;48.402;9.994;2023-02-28T04:07:35;6.47;;;4.83;;
13584;SDS011;6863;48.402;9.994;2023-02-28T04:10:00;6.67;;;5.50;;
13584;SDS011;6863;48.402;9.994;2023-02-28T04:12:26;5.80;;;5.30;;
13584;SDS011;6863;48.402;9.994;2023-02-28T04:14:51;6.30;;;5.70;;
13584;SDS011;6863;48.402;9.994;2023-02-28T04:17:17;5.83;;;5.23;;
13584;SDS011;6863;48.402;9.994;2023-02-28T04:19:43;6.13;;;5.53;;
13584;SDS011;6863;48.402;9.994;2023-02-28T04:22:12;6.03;;;5.43;;
13584;SDS011;6863;48.402;9.994;2023-02-28T04:24:38;6.23;;;5.20;;
13584;SDS011;6863;48.402;9.994;2023-02-28T04:27:06;8.27;;;5.40;;
13584;SDS011;6863;48.402;9.994;2023-02-28T04:29:33;5.50;;;5.00;;
13584;SDS011;6863;48.402;9.994;2023-02-28T04:31:59;5.90;;;5.00;;
13584;SDS011;6863;48.402;9.994;2023-02-28T04:34:27;6.27;;;5.57;;
13584;SDS011;6863;48.402;9.994;2023-02-28T04:36:54;7.00;;;5.10;;
13584;SDS011;6863;48.402;9.994;2023-02-28T04:39:21;5.77;;;4.97;;
13584;SDS011;6863;48.402;9.994;2023-02-28T04:41:47;6.90;;;6.00;;
13584;SDS011;6863;48.402;9.994;2023-02-28T04:44:13;9.87;;;6.07;;
13584;SDS011;6863;48.402;9.994;2023-02-28T04:46:39;6.17;;;5.17;;
13584;SDS011;6863;48.402;9.994;2023-02-28T04:49:05;7.30;;;6.10;;
13584;SDS011;6863;48.402;9.994;2023-02-28T04:51:31;6.47;;;5.90;;
13584;SDS011;6863;48.402;9.994;2023-02-28T04:53:56;6.43;;;5.77;;
13584;SDS011;6863;48.402;9.994;2023-02-28T04:56:22;6.67;;;5.70;;
13584;SDS011;6863;48.402;9.994;2023-02-28T04:58:48;6.83;;;6.23;;
13584;SDS011;6863;48.402;9.994;2023-02-28T05:03:43;6.83;;;6.23;;
13584;SDS011;6863;48.402;9.994;2023-02-28T05:06:09;7.00;;;6.30;;
13584;SDS011;6863;48.402;9.994;2023-02-28T05:08:36;8.37;;;6.40;;
13584;SDS011;6863;48.402;9.994;2023-02-28T05:11:01;7.70;;;6.43;;
13584;SDS011;6863;48.402;9.994;2023-02-28T05:13:28;8.20;;;6.63;;
13584;SDS011;6863;48.402;9.994;2023-02-28T05:15:54;7.27;;;6.57;;
13584;SDS011;6863;48.402;9.994;2023-02-28T05:18:20;9.07;;;6.87;;
13584;SDS011;6863;48.402;9.994;2023-02-28T05:20:45;7.33;;;6.10;;
13584;SDS011;6863;48.402;9.994;2023-02-28T05:23:12;7.53;;;6.33;;
13584;SDS011;6863;48.402;9.994;2023-02-28T05:25:39;8.37;;;6.93;;
13584;SDS011;6863;48.402;9.994;2023-02-28T05:28:05;7.87;;;6.30;;
13584;SDS011;6863;48.402;9.994;2023-02-28T05:30:32;6.73;;;6.10;;
13584;SDS011;6863;48.402;9.994;2023-02-28T05:32:57;7.57;;;6.27;;
13584;SDS011;6863;48.402;9.994;2023-02-28T05:35:24;7.10;;;6.40;;
13584;SDS011;6863;48.402;9.994;2023-02-28T05:37:50;7.87;;;6.40;;
13584;SDS011;6863;48.402;9.994;2023-02-28T05:40:16;9.50;;;6.87;;
13584;SDS011;6863;48.402;9.994;2023-02-28T05:42:42;7.87;;;6.67;;
13584;SDS011;6863;48.402;9.994;2023-02-28T05:45:08;7.40;;;6.60;;
13584;SDS011;6863;48.402;9.994;2023-02-28T05:47:35;8.57;;;7.33;;
13584;SDS011;6863;48.402;9.994;2023-02-28T05:50:01;9.10;;;7.47;;
13584;SDS011;6863;48.402;9.994;2023-02-28T05:52:27;9.40;;;6.80;;
13584;SDS011;6863;48.402;9.994;2023-02-28T05:54:55;9.03;;;7.33;;
13584;SDS011;6863;48.402;9.994;2023-02-28T05:57:20;8.43;;;7.13;;
13584;SDS011;6863;48.402;9.994;2023-02-28T05:59:46;9.73;;;7.30;;
13584;SDS011;6863;48.402;9.994;2023-02-28T06:02:13;10.50;;;7.53;;
13584;SDS011;6863;48.402;9.994;2023-02-28T06:04:39;8.43;;;7.50;;
13584;SDS011;6863;48.402;9.994;2023-02-28T06:07:06;8.33;;;6.80;;
13584;SDS011;6863;48.402;9.994;2023-02-28T06:09:32;11.73;;;7.50;;
13584;SDS011;6863;48.402;9.994;2023-02-28T06:11:58;10.13;;;7.80;;
13584;SDS011;6863;48.402;9.994;2023-02-28T06:14:25;9.50;;;8.20;;
13584;SDS011;6863;48.402;9.994;2023-02-28T06:16:51;10.03;;;8.57;;
13584;SDS011;6863;48.402;9.994;2023-02-28T06:19:20;9.83;;;8.33;;
13584;SDS011;6863;48.402;9.994;2023-02-28T06:21:48;10.77;;;8.00;;
13584;SDS011;6863;48.402;9.994;2023-02-28T06:24:15;11.13;;;8.80;;
13584;SDS011;6863;48.402;9.994;2023-02-28T06:26:41;10.10;;;8.13;;
13584;SDS011;6863;48.402;9.994;2023-02-28T06:29:06;9.57;;;8.67;;
13584;SDS011;6863;48.402;9.994;2023-02-28T06:31:32;9.87;;;7.90;;
13584;SDS011;6863;48.402;9.994;2023-02-28T06:33:58;10.00;;;8.67;;
13584;SDS011;6863;48.402;9.994;2023-02-28T06:36:23;8.37;;;7.47;;
13584;SDS011;6863;48.402;9.994;2023-02-28T06:38:49;10.37;;;8.20;;
13584;SDS011;6863;48.402;9.994;2023-02-28T06:41:19;11.23;;;8.47;;
13584;SDS011;6863;48.402;9.994;2023-02-28T06:43:46;9.33;;;8.43;;
13584;SDS011;6863;48.402;9.994;2023-02-28T06:46:13;11.87;;;9.20;;
13584;SDS011;6863;48.402;9.994;2023-02-28T06:48:39;10.40;;;8.40;;
13584;SDS011;6863;48.402;9.994;2023-02-28T06:51:06;11.07;;;8.73;;
13584;SDS011;6863;48.402;9.994;2023-02-28T06:53:34;13.07;;;8.93;;
13584;SDS011;6863;48.402;9.994;2023-02-28T06:56:03;10.33;;;8.73;;
13584;SDS011;6863;48.402;9.994;2023-02-28T06:58:34;10.57;;;8.53;;
13584;SDS011;6863;48.402;9.994;2023-02-28T07:00:59;10.27;;;8.30;;
13584;SDS011;6863;48.402;9.994;2023-02-28T07:03:26;9.53;;;8.53;;
13584;SDS011;6863;48.402;9.994;2023-02-28T07:05:51;11.00;;;8.50;;
13584;SDS011;6863;48.402;9.994;2023-02-28T07:08:17;9.90;;;8.90;;
13584;SDS011;6863;48.402;9.994;2023-02-28T07:10:42;11.40;;;9.43;;
13584;SDS011;6863;48.402;9.994;2023-02-28T07:13:08;10.40;;;9.50;;
13584;SDS011;6863;48.402;9.994;2023-02-28T07:15:35;12.00;;;9.63;;
13584;SDS011;6863;48.402;9.994;2023-02-28T07:18:02;12.63;;;9.90;;
13584;SDS011;6863;48.402;9.994;2023-02-28T07:22:59;11.23;;;9.87;;
13584;SDS011;6863;48.402;9.994;2023-02-28T07:25:26;11.60;;;9.43;;
13584;SDS011;6863;48.402;9.994;2023-02-28T07:27:53;10.23;;;9.10;;
13584;SDS011;6863;48.402;9.994;2023-02-28T07:30:19;9.37;;;8.37;;
13584;SDS011;6863;48.402;9.994;2023-02-28T07:32:45;10.37;;;9.27;;
13584;SDS011;6863;48.402;9.994;2023-02-28T07:35:11;10.03;;;9.00;;
13584;SDS011;6863;48.402;9.994;2023-02-28T07:37:37;12.00;;;9.57;;
13584;SDS011;6863;48.402;9.994;2023-02-28T07:40:03;12.30;;;9.47;;
13584;SDS011;6863;48.402;9.994;2023-02-28T07:42:39;11.53;;;9.03;;
13584;SDS011;6863;48.402;9.994;2023-02-28T07:45:06;11.50;;;9.37;;
13584;SDS011;6863;48.402;9.994;2023-02-28T07:47:33;10.23;;;8.80;;
13584;SDS011;6863;48.402;9.994;2023-02-28T07:49:59;11.93;;;9.27;;
13584;SDS011;6863;48.402;9.994;2023-02-28T07:52:25;12.37;;;9.77;;
13584;SDS011;6863;48.402;9.994;2023-02-28T07:54:51;11.03;;;9.40;;
13584;SDS011;6863;48.402;9.994;2023-02-28T07:57:17;14.03;;;9.83;;
13584;SDS011;6863;48.402;9.994;2023-02-28T07:59:43;10.47;;;9.43;;
13584;SDS011;6863;48.402;9.994;2023-02-28T08:02:11;10.10;;;8.53;;
13584;SDS011;6863;48.402;9.994;2023-02-28T08:04:42;10.60;;;9.13;;
13584;SDS011;6863;48.402;9.994;2023-02-28T08:07:08;10.63;;;8.87;;
13584;SDS011;6863;48.402;9.994;2023-02-28T08:09:37;9.70;;;8.70;;
13584;SDS011;6863;48.402;9.994;2023-02-28T08:12:04;10.97;;;9.77;;
13584;SDS011;6863;48.402;9.994;2023-02-28T08:14:30;10.80;;;9.13;;
13584;SDS011;6863;48.402;9.994;2023-02-28T08:16:55;11.07;;;9.50;;
13584;SDS011;6863;48.402;9.994;2023-02-28T08:19:21;10.63;;;8.87;;
13584;SDS011;6863;48.402;9.994;2023-02-28T08:21:46;12.03;;;9.47;;
13584;SDS011;6863;48.402;9.994;2023-02-28T08:24:12;12.40;;;9.87;;
13584;SDS011;6863;48.402;9.994;2023-02-28T08:26:37;10.97;;;9.23;;
13584;SDS011;6863;48.402;9.994;2023-02-28T08:29:06;9.90;;;8.87;;
13584;SDS011;6863;48.402;9.994;2023-02-28T08:31:31;14.33;;;10.40;;
13584;SDS011;6863;48.402;9.994;2023-02-28T08:33:57;10.77;;;9.67;;
13584;SDS011;6863;48.402;9.994;2023-02-28T08:36:24;11.17;;;9.13;;
13584;SDS011;6863;48.402;9.994;2023-02-28T08:38:51;10.73;;;8.97;;
13584;SDS011;6863;48.402;9.994;2023-02-28T08:41:16;11.13;;;9.93;;
13584;SDS011;6863;48.402;9.994;2023-02-28T08:43:42;11.30;;;9.17;;
13584;SDS011;6863;48.402;9.994;2023-02-28T08:46:08;11.57;;;9.50;;
13584;SDS011;6863;48.402;9.994;2023-02-28T08:48:37;15.90;;;9.93;;
13584;SDS011;6863;48.402;9.994;2023-02-28T08:51:05;14.37;;;10.27;;
13584;SDS011;6863;48.402;9.994;2023-02-28T08:53:36;10.83;;;9.40;;
13584;SDS011;6863;48.402;9.994;2023-02-28T08:56:04;10.63;;;8.93;;
13584;SDS011;6863;48.402;9.994;2023-02-28T08:58:31;10.67;;;9.13;;
13584;SDS011;6863;48.402;9.994;2023-02-28T09:00:57;11.77;;;9.23;;
13584;SDS011;6863;48.402;9.994;2023-02-28T09:03:22;10.70;;;8.83;;
13584;SDS011;6863;48.402;9.994;2023-02-28T09:05:56;12.43;;;9.40;;
13584;SDS011;6863;48.402;9.994;2023-02-28T09:08:24;8.77;;;7.97;;
13584;SDS011;6863;48.402;9.994;2023-02-28T09:10:50;9.47;;;8.47;;
13584;SDS011;6863;48.402;9.994;2023-02-28T09:13:17;13.93;;;9.83;;
13584;SDS011;6863;48.402;9.994;2023-02-28T09:15:43;11.73;;;9.20;;
13584;SDS011;6863;48.402;9.994;2023-02-28T09:18:09;10.03;;;9.03;;
13584;SDS011;6863;48.402;9.994;2023-02-28T09:20:36;9.77;;;8.80;;
13584;SDS011;6863;48.402;9.994;2023-02-28T09:23:03;11.70;;;9.27;;
13584;SDS011;6863;48.402;9.994;2023-02-28T09:25:32;9.20;;;8.30;;
13584;SDS011;6863;48.402;9.994;2023-02-28T09:27:58;11.47;;;9.07;;
13584;SDS011;6863;48.402;9.994;2023-02-28T09:30:24;10.57;;;9.23;;
13584;SDS011;6863;48.402;9.994;2023-02-28T09:32:49;10.43;;;9.30;;
13584;SDS011;6863;48.402;9.994;2023-02-28T09:35:18;10.97;;;9.73;;
13584;SDS011;6863;48.402;9.994;2023-02-28T09:37:46;10.73;;;9.00;;
13584;SDS011;6863;48.402;9.994;2023-02-28T09:40:12;10.90;;;9.10;;
13584;SDS011;6863;48.402;9.994;2023-02-28T09:42:42;11.13;;;9.57;;
13584;SDS011;6863;48.402;9.994;2023-02-28T09:45:42;11.03;;;9.80;;
13584;SDS011;6863;48.402;9.994;2023-02-28T09:48:12;14.73;;;9.33;;
13584;SDS011;6863;48.402;9.994;2023-02-28T09:50:46;12.03;;;9.80;;
13584;SDS011;6863;48.402;9.994;2023-02-28T09:53:29;16.90;;;10.10;;
13584;SDS011;6863;48.402;9.994;2023-02-28T09:55:59;10.03;;;9.03;;
13584;SDS011;6863;48.402;9.994;2023-02-28T09:58:46;12.20;;;9.53;;
13584;SDS011;6863;48.402;9.994;2023-02-28T10:01:19;10.73;;;9.17;;
13584;SDS011;6863;48.402;9.994;2023-02-28T10:04:00;10.37;;;9.17;;
13584;SDS011;6863;48.402;9.994;2023-02-28T10:06:35;10.90;;;9.20;;
13584;SDS011;6863;48.402;9.994;2023-02-28T10:09:16;12.10;;;8.80;;
13584;SDS011;6863;48.402;9.994;2023-02-28T10:11:47;10.57;;;9.37;;
13584;SDS011;6863;48.402;9.994;2023-02-28T10:14:18;14.20;;;11.23;;
13584;SDS011;6863;48.402;9.994;2023-02-28T10:19:30;10.73;;;9.63;;
13584;SDS011;6863;48.402;9.994;2023-02-28T10:22:01;10.70;;;9.50;;
13584;SDS011;6863;48.402;9.994;2023-02-28T10:24:50;12.00;;;10.47;;
13584;SDS011;6863;48.402;9.994;2023-02-28T10:27:17;23.57;;;11.87;;
13584;SDS011;6863;48.402;9.994;2023-02-28T10:29:49;14.03;;;10.23;;
13584;SDS011;6863;48.402;9.994;2023-02-28T10:32:20;48.03;;;13.67;;
13584;SDS011;6863;48.402;9.994;2023-02-28T10:37:40;10.27;;;8.50;;
13584;SDS011;6863;48.402;9.994;2023-02-28T10:40:24;11.23;;;9.10;;
13584;SDS011;6863;48.402;9.994;2023-02-28T10:43:01;11.07;;;9.27;;
13584;SDS011;6863;48.402;9.994;2023-02-28T10:45:29;10.37;;;9.20;;
13584;SDS011;6863;48.402;9.994;2023-02-28T10:47:58;10.57;;;8.97;;
13584;SDS011;6863;48.402;9.994;2023-02-28T10:52:55;17.60;;;9.73;;
13584;SDS011;6863;48.402;9.994;2023-02-28T10:55:40;10.43;;;9.43;;
13584;SDS011;6863;48.402;9.994;2023-02-28T10:58:28;9.53;;;8.63;;
13584;SDS011;6863;48.402;9.994;2023-02-28T11:00:57;10.20;;;9.10;;
13584;SDS011;6863;48.402;9.994;2023-02-28T11:03:31;9.50;;;8.60;;
13584;SDS011;6863;48.402;9.994;2023-02-28T11:06:03;9.63;;;8.63;;
13584;SDS011;6863;48.402;9.994;2023-02-28T11:08:31;9.67;;;8.97;;
13584;SDS011;6863;48.402;9.994;2023-02-28T11:10:58;10.50;;;9.60;;
13584;SDS011;6863;48.402;9.994;2023-02-28T11:13:30;9.97;;;9.07;;
13584;SDS011;6863;48.402;9.994;2023-02-28T11:15:59;11.33;;;9.73;;
13584;SDS011;6863;48.402;9.994;2023-02-28T11:21:26;12.00;;;10.70;;
13584;SDS011;6863;48.402;9.994;2023-02-28T11:23:56;9.23;;;8.43;;
13584;SDS011;6863;48.402;9.994;2023-02-28T11:26:59;10.80;;;9.70;;
13584;SDS011;6863;48.402;9.994;2023-02-28T11:29:28;10.13;;;9.23;;
13584;SDS011;6863;48.402;9.994;2023-02-28T11:34:37;15.20;;;9.70;;
13584;SDS011;6863;48.402;9.994;2023-02-28T11:37:05;11.83;;;9.80;;
13584;SDS011;6863;48.402;9.994;2023-02-28T11:39:35;11.23;;;10.13;;
13584;SDS011;6863;48.402;9.994;2023-02-28T11:47:36;11.87;;;10.00;;
13584;SDS011;6863;48.402;9.994;2023-02-28T11:53:24;10.10;;;9.10;;
13584;SDS011;6863;48.402;9.994;2023-02-28T11:56:06;10.30;;;9.30;;
13584;SDS011;6863;48.402;9.994;2023-02-28T12:02:05;10.03;;;9.23;;
13584;SDS011;6863;48.402;9.994;2023-02-28T12:07:31;10.20;;;9.13;;
13584;SDS011;6863;48.402;9.994;2023-02-28T12:10:21;9.88;;;8.98;;
13584;SDS011;6863;48.402;9.994;2023-02-28T12:12:58;12.88;;;9.68;;
13584;SDS011;6863;48.402;9.994;2023-02-28T12:15:54;10.15;;;9.35;;
13584;SDS011;6863;48.402;9.994;2023-02-28T12:18:34;9.55;;;8.85;;
13584;SDS011;6863;48.402;9.994;2023-02-28T12:21:04;10.32;;;9.45;;
13584;SDS011;6863;48.402;9.994;2023-02-28T12:29:10;10.80;;;9.70;;
13584;SDS011;6863;48.402;9.994;2023-02-28T12:31:52;10.38;;;9.48;;
13584;SDS011;6863;48.402;9.994;2023-02-28T12:34:28;10.20;;;9.38;;
13584;SDS011;6863;48.402;9.994;2023-02-28T12:36:58;10.82;;;9.65;;
13584;SDS011;6863;48.402;9.994;2023-02-28T12:39:29;9.60;;;8.90;;
13584;SDS011;6863;48.402;9.994;2023-02-28T12:42:01;10.52;;;9.55;;
13584;SDS011;6863;48.402;9.994;2023-02-28T12:44:37;10.23;;;9.38;;
13584;SDS011;6863;48.402;9.994;2023-02-28T12:47:14;14.50;;;10.68;;
13584;SDS011;6863;48.402;9.994;2023-02-28T12:49:53;10.63;;;9.70;;
13584;SDS011;6863;48.402;9.994;2023-02-28T12:52:28;11.32;;;10.23;;
13584;SDS011;6863;48.402;9.994;2023-02-28T12:55:00;10.88;;;10.02;;
13584;SDS011;6863;48.402;9.994;2023-02-28T13:00:15;12.07;;;10.02;;
13584;SDS011;6863;48.402;9.994;2023-02-28T13:02:49;16.58;;;10.88;;
13584;SDS011;6863;48.402;9.994;2023-02-28T13:14:00;16.10;;;10.68;;
13584;SDS011;6863;48.402;9.994;2023-02-28T13:16:28;10.32;;;9.43;;
13584;SDS011;6863;48.402;9.994;2023-02-28T13:19:28;10.88;;;9.98;;
13584;SDS011;6863;48.402;9.994;2023-02-28T13:21:55;10.25;;;9.45;;
13584;SDS011;6863;48.402;9.994;2023-02-28T13:24:56;12.23;;;10.15;;
13584;SDS011;6863;48.402;9.994;2023-02-28T13:29:57;10.32;;;9.43;;
13584;SDS011;6863;48.402;9.994;2023-02-28T13:47:54;14.20;;;10.00;;
13584;SDS011;6863;48.402;9.994;2023-02-28T13:55:23;9.75;;;8.85;;
13584;SDS011;6863;48.402;9.994;2023-02-28T14:00:39;10.27;;;9.38;;
13584;SDS011;6863;48.402;9.994;2023-02-28T14:06:15;11.90;;;9.90;;
13584;SDS011;6863;48.402;9.994;2023-02-28T14:08:58;10.88;;;9.95;;
13584;SDS011;6863;48.402;9.994;2023-02-28T14:11:42;9.70;;;8.90;;
13584;SDS011;6863;48.402;9.994;2023-02-28T14:14:09;9.45;;;8.70;;
13584;SDS011;6863;48.402;9.994;2023-02-28T14:16:55;10.25;;;9.25;;
13584;SDS011;6863;48.402;9.994;2023-02-28T14:19:24;11.25;;;10.10;;
13584;SDS011;6863;48.402;9.994;2023-02-28T14:21:59;10.57;;;9.48;;
13584;SDS011;6863;48.402;9.994;2023-02-28T14:27:22;11.23;;;9.27;;
13584;SDS011;6863;48.402;9.994;2023-02-28T14:38:57;9.63;;;8.73;;
13584;SDS011;6863;48.402;9.994;2023-02-28T14:41:29;10.77;;;9.57;;
13584;SDS011;6863;48.402;9.994;2023-02-28T14:44:00;9.23;;;8.40;;
13584;SDS011;6863;48.402;9.994;2023-02-28T14:46:37;10.03;;;9.03;;
13584;SDS011;6863;48.402;9.994;2023-02-28T14:49:05;12.30;;;9.63;;
13584;SDS011;6863;48.402;9.994;2023-02-28T14:51:34;10.87;;;9.40;;
13584;SDS011;6863;48.402;9.994;2023-02-28T14:54:00;10.60;;;8.33;;
13584;SDS011;6863;48.402;9.994;2023-02-28T14:56:32;10.13;;;9.23;;
13584;SDS011;6863;48.402;9.994;2023-02-28T14:59:01;9.93;;;8.83;;
13584;SDS011;6863;48.402;9.994;2023-02-28T15:01:26;9.30;;;8.40;;
13584;SDS011;6863;48.402;9.994;2023-02-28T15:04:03;9.37;;;8.53;;
13584;SDS011;6863;48.402;9.994;2023-02-28T15:06:31;9.90;;;9.00;;
13584;SDS011;6863;48.402;9.994;2023-02-28T15:09:17;9.70;;;8.70;;
13584;SDS011;6863;48.402;9.994;2023-02-28T15:11:47;11.00;;;8.80;;
13584;SDS011;6863;48.402;9.994;2023-02-28T15:14:15;24.13;;;10.83;;
13584;SDS011;6863;48.402;9.994;2023-02-28T15:16:44;9.83;;;8.83;;
13584;SDS011;6863;48.402;9.994;2023-02-28T15:19:26;9.30;;;8.50;;
13584;SDS011;6863;48.402;9.994;2023-02-28T15:22:05;10.00;;;8.80;;
13584;SDS011;6863;48.402;9.994;2023-02-28T15:24:40;11.83;;;8.97;;
13584;SDS011;6863;48.402;9.994;2023-02-28T15:27:20;10.10;;;9.20;;
13584;SDS011;6863;48.402;9.994;2023-02-28T15:29:49;10.70;;;8.57;;
13584;SDS011;6863;48.402;9.994;2023-02-28T15:32:29;9.83;;;8.80;;
13584;SDS011;6863;48.402;9.994;2023-02-28T15:34:56;12.03;;;9.40;;
13584;SDS011;6863;48.402;9.994;2023-02-28T15:42:36;8.80;;;7.90;;
13584;SDS011;6863;48.402;9.994;2023-02-28T15:45:02;10.40;;;8.20;;
13584;SDS011;6863;48.402;9.994;2023-02-28T15:47:29;9.67;;;8.87;;
13584;SDS011;6863;48.402;9.994;2023-02-28T15:50:02;14.13;;;9.00;;
13584;SDS011;6863;48.402;9.994;2023-02-28T15:52:39;15.23;;;9.00;;
13584;SDS011;6863;48.402;9.994;2023-02-28T15:55:23;10.30;;;8.13;;
13584;SDS011;6863;48.402;9.994;2023-02-28T15:57:53;10.93;;;8.70;;
13584;SDS011;6863;48.402;9.994;2023-02-28T16:00:24;9.20;;;8.20;;
13584;SDS011;6863;48.402;9.994;2023-02-28T16:02:51;12.17;;;9.00;;
13584;SDS011;6863;48.402;9.994;2023-02-28T16:05:21;14.97;;;8.60;;
13584;SDS011;6863;48.402;9.994;2023-02-28T16:08:06;9.63;;;8.63;;
13584;SDS011;6863;48.402;9.994;2023-02-28T16:10:38;9.53;;;8.57;;
13584;SDS011;6863;48.402;9.994;2023-02-28T16:13:04;8.97;;;8.10;;
13584;SDS011;6863;48.402;9.994;2023-02-28T16:15:31;12.07;;;8.77;;
13584;SDS011;6863;48.402;9.994;2023-02-28T16:18:07;9.77;;;8.57;;
13584;SDS011;6863;48.402;9.994;2023-02-28T16:20:36;16.60;;;9.03;;
13584;SDS011;6863;48.402;9.994;2023-02-28T16:23:05;10.30;;;9.30;;
13584;SDS011;6863;48.402;9.994;2023-02-28T16:25:34;15.63;;;9.07;;
13584;SDS011;6863;48.402;9.994;2023-02-28T16:28:01;11.37;;;8.60;;
13584;SDS011;6863;48.402;9.994;2023-02-28T16:30:28;10.57;;;8.93;;
13584;SDS011;6863;48.402;9.994;2023-02-28T16:32:57;9.80;;;8.80;;
13584;SDS011;6863;48.402;9.994;2023-02-28T16:35:23;14.13;;;9.10;;
13584;SDS011;6863;48.402;9.994;2023-02-28T16:37:52;9.80;;;8.80;;
13584;SDS011;6863;48.402;9.994;2023-02-28T16:40:22;10.80;;;8.73;;
13584;SDS011;6863;48.402;9.994;2023-02-28T16:42:50;13.43;;;8.63;;
13584;SDS011;6863;48.402;9.994;2023-02-28T16:45:23;10.57;;;8.40;;
13584;SDS011;6863;48.402;9.994;2023-02-28T16:47:51;11.00;;;8.50;;
13584;SDS011;6863;48.402;9.994;2023-02-28T16:50:18;12.40;;;9.50;;
13584;SDS011;6863;48.402;9.994;2023-02-28T16:52:49;9.90;;;8.93;;
13584;SDS011;6863;48.402;9.994;2023-02-28T16:55:17;10.93;;;9.00;;
13584;SDS011;6863;48.402;9.994;2023-02-28T16:57:43;10.87;;;9.00;;
13584;SDS011;6863;48.402;9.994;2023-02-28T17:00:11;11.73;;;9.20;;
13584;SDS011;6863;48.402;9.994;2023-02-28T17:02:38;12.93;;;9.00;;
13584;SDS011;6863;48.402;9.994;2023-02-28T17:05:04;9.77;;;8.10;;
13584;SDS011;6863;48.402;9.994;2023-02-28T17:07:31;15.17;;;10.10;;
13584;SDS011;6863;48.402;9.994;2023-02-28T17:09:57;11.93;;;9.50;;
13584;SDS011;6863;48.402;9.994;2023-02-28T17:12:22;11.37;;;8.93;;
13584;SDS011;6863;48.402;9.994;2023-02-28T17:14:48;13.53;;;9.10;;
13584;SDS011;6863;48.402;9.994;2023-02-28T17:17:17;12.13;;;9.10;;
13584;SDS011;6863;48.402;9.994;2023-02-28T17:19:45;13.03;;;9.90;;
13584;SDS011;6863;48.402;9.994;2023-02-28T17:22:11;16.30;;;10.33;;
13584;SDS011;6863;48.402;9.994;2023-02-28T17:24:37;9.60;;;8.47;;